createdAt,value
2023-11-18T00:01:44.724Z,101027.16
2023-11-18T00:04:17.092Z,101024.66
2023-11-18T00:06:46.150Z,101038.56
2023-11-18T00:09:16.283Z,101038.56
2023-11-18T00:11:45.755Z,101040.34
2023-11-18T00:14:14.766Z,101038.63
2023-11-18T00:16:43.485Z,101039.53
2023-11-18T00:19:12.098Z,101034.34
2023-11-18T00:21:41.055Z,101035.25
2023-11-18T00:24:10.181Z,101035.25
2023-11-18T00:26:40.148Z,101031.81
2023-11-18T00:29:09.794Z,101032.72
2023-11-18T00:31:38.482Z,101032.72
2023-11-18T00:34:07.126Z,101033.63
2023-11-18T00:36:35.761Z,101035.31
2023-11-18T00:39:05.535Z,101020.53
2023-11-18T00:41:34.925Z,101018.81
2023-11-18T00:44:04.906Z,101010.13
2023-11-18T00:46:37.226Z,101010.03
2023-11-18T00:49:06.251Z,101008.16
2023-11-18T00:51:36.718Z,101006.38
2023-11-18T00:54:06.692Z,101010.56
2023-11-18T00:56:35.527Z,101010.41
2023-11-18T00:59:07.628Z,101008.50
2023-11-18T01:01:36.535Z,101003.16
2023-11-18T01:04:06.586Z,101010.78
2023-11-18T01:06:35.624Z,101002.91
2023-11-18T01:09:04.876Z,101009.72
2023-11-18T01:11:33.475Z,101000.06
2023-11-18T01:14:03.134Z,101003.44
2023-11-18T01:16:33.360Z,101003.44
2023-11-18T01:19:02.358Z,101004.31
2023-11-18T01:21:31.054Z,101000.84
2023-11-18T01:23:59.706Z,101013.94
2023-11-18T01:26:28.259Z,101022.63
2023-11-18T01:28:56.851Z,101022.63
2023-11-18T01:31:25.530Z,101020.03
2023-11-18T01:33:57.082Z,101029.59
2023-11-18T01:36:25.763Z,101033.19
2023-11-18T01:38:56.494Z,101036.66
2023-11-18T01:41:25.085Z,101044.47
2023-11-18T01:43:54.687Z,101040.19
2023-11-18T01:46:24.665Z,101039.38
2023-11-18T01:48:55.394Z,101047.16
2023-11-18T01:51:24.696Z,101042.78
2023-11-18T01:53:54.670Z,101035.00
2023-11-18T01:56:26.390Z,101044.56
2023-11-18T01:58:55.556Z,101035.06
2023-11-18T02:01:24.298Z,101035.00
2023-11-18T02:03:53.500Z,101035.88
2023-11-18T02:06:23.654Z,101021.91
2023-11-18T02:08:52.358Z,101020.13
2023-11-18T02:11:30.963Z,101025.22
2023-11-18T02:14:03.986Z,101017.41
2023-11-18T02:16:33.725Z,101026.03
2023-11-18T02:19:06.504Z,101027.63
2023-11-18T02:21:38.777Z,101027.63
2023-11-18T02:24:08.277Z,101023.31
2023-11-18T02:26:38.443Z,101021.63
2023-11-18T02:29:07.153Z,101024.22
2023-11-18T02:31:38.940Z,101025.09
2023-11-18T02:34:16.890Z,101012.94
2023-11-18T02:36:48.908Z,101013.81
2023-11-18T02:39:23.804Z,101008.63
2023-11-18T02:41:54.957Z,101009.53
2023-11-18T02:44:26.693Z,101005.25
2023-11-18T02:46:55.515Z,101001.84
2023-11-18T02:49:25.212Z,101004.53
2023-11-18T02:51:53.825Z,101008.03
2023-11-18T02:54:25.181Z,101005.44
2023-11-18T02:56:56.004Z,101003.81
2023-11-18T02:59:24.700Z,101014.22
2023-11-18T03:01:56.697Z,101024.59
2023-11-18T03:04:26.145Z,101032.28
2023-11-18T03:06:54.859Z,101037.59
2023-11-18T03:09:23.617Z,101033.41
2023-11-18T03:11:52.575Z,101020.41
2023-11-18T03:14:23.107Z,101006.63
2023-11-18T03:16:51.887Z,101000.63
2023-11-18T03:19:20.595Z,101007.63
2023-11-18T03:21:53.262Z,100996.25
2023-11-18T03:24:21.820Z,100994.53
2023-11-18T03:26:50.404Z,100989.34
2023-11-18T03:29:21.220Z,100987.56
2023-11-18T03:31:51.150Z,100978.06
2023-11-18T03:34:21.726Z,100974.63
2023-11-18T03:36:50.470Z,100972.84
2023-11-18T03:39:19.564Z,100963.34
2023-11-18T03:41:48.049Z,100957.28
2023-11-18T03:44:16.672Z,100970.25
2023-11-18T03:46:45.323Z,100972.84
2023-11-18T03:49:15.351Z,100973.75
2023-11-18T03:51:44.356Z,100972.84
2023-11-18T03:54:14.010Z,100979.84
2023-11-18T03:56:43.274Z,100986.63
2023-11-18T03:59:12.073Z,101000.63
2023-11-18T04:01:42.076Z,101007.41
2023-11-18T04:04:11.434Z,101017.81
2023-11-18T04:06:41.438Z,101013.41
2023-11-18T04:09:10.792Z,101003.91
2023-11-18T04:11:39.807Z,100998.84
2023-11-18T04:14:08.971Z,100998.84
2023-11-18T04:16:37.754Z,100997.03
2023-11-18T04:19:06.631Z,100988.44
2023-11-18T04:21:35.301Z,100993.63
2023-11-18T04:24:06.558Z,100980.50
2023-11-18T04:26:35.205Z,100974.44
2023-11-18T04:29:03.924Z,100974.44
2023-11-18T04:31:32.752Z,100973.53
2023-11-18T04:34:01.367Z,100957.13
2023-11-18T04:36:30.245Z,100954.53
2023-11-18T04:38:58.954Z,100953.66
2023-11-18T04:41:28.877Z,100945.75
2023-11-18T04:43:57.451Z,100945.69
2023-11-18T04:46:26.044Z,100937.00
2023-11-18T04:48:56.069Z,100924.91
2023-11-18T04:51:24.796Z,100922.28
2023-11-18T04:53:53.357Z,100911.00
2023-11-18T04:56:22.885Z,100921.41
2023-11-18T04:58:52.778Z,100915.28
2023-11-18T05:01:21.310Z,100910.09
2023-11-18T05:03:50.076Z,100912.69
2023-11-18T05:06:22.605Z,100904.91
2023-11-18T05:08:51.244Z,100906.72
2023-11-18T05:11:19.835Z,100899.81
2023-11-18T05:13:48.419Z,100896.31
2023-11-18T05:16:19.016Z,100880.78
2023-11-18T05:18:47.756Z,100888.59
2023-11-18T05:21:19.804Z,100883.31
2023-11-18T05:23:48.456Z,100878.19
2023-11-18T05:26:18.147Z,100868.72
2023-11-18T05:28:46.979Z,100875.59
2023-11-18T05:31:15.645Z,100876.53
2023-11-18T05:33:45.636Z,100868.72
2023-11-18T05:36:14.177Z,100874.91
2023-11-18T05:38:43.458Z,100872.31
2023-11-18T05:41:17.911Z,100874.13
2023-11-18T05:43:52.680Z,100883.69
2023-11-18T05:46:23.945Z,100880.31
2023-11-18T05:48:54.558Z,100881.28
2023-11-18T05:51:28.145Z,100881.38
2023-11-18T05:53:56.858Z,100875.34
2023-11-18T05:56:26.197Z,100878.06
2023-11-18T05:58:55.611Z,100872.84
2023-11-18T06:01:25.010Z,100871.25
2023-11-18T06:03:55.528Z,100867.84
2023-11-18T06:06:27.222Z,100867.03
2023-11-18T06:08:56.053Z,100854.06
2023-11-18T06:11:24.856Z,100859.31
2023-11-18T06:13:54.659Z,100862.84
2023-11-18T06:16:25.507Z,100861.19
2023-11-18T06:18:57.215Z,100847.41
2023-11-18T06:21:29.999Z,100842.28
2023-11-18T06:23:59.436Z,100834.47
2023-11-18T06:26:28.991Z,100834.59
2023-11-18T06:28:58.533Z,100842.38
2023-11-18T06:31:27.305Z,100850.34
2023-11-18T06:33:57.766Z,100840.75
2023-11-18T06:36:27.924Z,100846.03
2023-11-18T06:38:57.393Z,100848.63
2023-11-18T06:41:27.585Z,100848.72
2023-11-18T06:44:02.170Z,100838.44
2023-11-18T06:46:35.011Z,100834.19
2023-11-18T06:49:07.766Z,100832.50
2023-11-18T06:51:39.333Z,100833.50
2023-11-18T06:54:11.877Z,100843.97
2023-11-18T06:56:44.182Z,100847.44
2023-11-18T06:59:16.009Z,100842.34
2023-11-18T07:01:46.781Z,100852.84
2023-11-18T07:04:17.171Z,100857.22
2023-11-18T07:06:47.721Z,100864.19
2023-11-18T07:09:19.551Z,100877.28
2023-11-18T07:11:49.314Z,100873.97
2023-11-18T07:14:18.893Z,100879.16
2023-11-18T07:16:48.044Z,100882.75
2023-11-18T07:19:21.726Z,100881.16
2023-11-18T07:21:52.416Z,100882.09
2023-11-18T07:24:22.365Z,100867.41
2023-11-18T07:26:51.915Z,100864.88
2023-11-18T07:29:24.645Z,100858.06
2023-11-18T07:31:55.905Z,100852.06
2023-11-18T07:34:27.265Z,100851.25
2023-11-18T07:36:56.887Z,100860.94
2023-11-18T07:39:44.762Z,100864.50
2023-11-18T07:42:15.966Z,100857.69
2023-11-18T07:44:44.939Z,100845.66
2023-11-18T07:47:13.794Z,100843.16
2023-11-18T07:49:43.950Z,100835.50
2023-11-18T07:52:12.543Z,100832.91
2023-11-18T07:54:41.279Z,100833.88
2023-11-18T07:57:11.947Z,100829.66
2023-11-18T07:59:40.562Z,100825.34
2023-11-18T08:02:10.681Z,100812.44
2023-11-18T08:04:39.506Z,100822.03
2023-11-18T08:07:11.794Z,100834.22
2023-11-18T08:09:40.575Z,100824.78
2023-11-18T08:12:10.454Z,100822.28
2023-11-18T08:14:39.044Z,100830.19
2023-11-18T08:17:07.709Z,100835.53
2023-11-18T08:19:36.574Z,100833.00
2023-11-18T08:22:05.471Z,100842.66
2023-11-18T08:24:35.447Z,100839.28
2023-11-18T08:27:04.445Z,100835.94
2023-11-18T08:29:35.039Z,100836.03
2023-11-18T08:32:03.752Z,100833.59
2023-11-18T08:34:34.471Z,100837.19
2023-11-18T08:37:04.492Z,100836.34
2023-11-18T08:39:33.317Z,100845.13
2023-11-18T08:42:03.287Z,100830.50
2023-11-18T08:44:33.649Z,100841.88
2023-11-18T08:47:02.824Z,100839.34
2023-11-18T08:49:35.079Z,100835.03
2023-11-18T08:52:03.778Z,100838.63
2023-11-18T08:54:37.909Z,100839.59
2023-11-18T08:57:24.780Z,100832.78
2023-11-18T08:59:53.621Z,100830.22
2023-11-18T09:02:24.623Z,100835.53
2023-11-18T09:04:56.530Z,100830.41
2023-11-18T09:07:25.525Z,100837.50
2023-11-18T09:09:54.245Z,100834.06
2023-11-18T09:12:25.540Z,100816.81
2023-11-18T09:14:55.177Z,100819.56
2023-11-18T09:17:24.218Z,100806.56
2023-11-18T09:19:53.977Z,100800.63
2023-11-18T09:22:23.805Z,100805.09
2023-11-18T09:24:52.590Z,100790.34
2023-11-18T09:27:21.184Z,100800.03
2023-11-18T09:29:51.220Z,100792.41
2023-11-18T09:32:20.079Z,100787.25
2023-11-18T09:34:49.325Z,100783.91
2023-11-18T09:37:18.227Z,100780.56
2023-11-18T09:39:47.290Z,100783.25
2023-11-18T09:42:20.061Z,100780.72
2023-11-18T09:44:51.549Z,100783.41
2023-11-18T09:47:26.351Z,100781.78
2023-11-18T09:49:58.429Z,100786.16
2023-11-18T09:52:28.841Z,100797.63
2023-11-18T09:55:04.708Z,100788.09
2023-11-18T09:57:38.360Z,100781.28
2023-11-18T10:00:22.587Z,100779.63
2023-11-18T10:02:53.116Z,100773.59
2023-11-18T10:05:23.178Z,100780.59
2023-11-18T10:07:53.270Z,100771.13
2023-11-18T10:10:23.197Z,100777.31
2023-11-18T10:12:54.146Z,100770.47
2023-11-18T10:15:25.708Z,100769.75
2023-11-18T10:18:01.028Z,100755.97
2023-11-18T10:20:45.938Z,100752.63
2023-11-18T10:23:22.512Z,100730.19
2023-11-18T10:25:54.024Z,100724.19
2023-11-18T10:28:29.069Z,100719.13
2023-11-18T10:31:04.510Z,100718.28
2023-11-18T10:33:33.422Z,100702.81
2023-11-18T10:36:07.279Z,100702.97
2023-11-18T10:38:44.546Z,100676.97
2023-11-18T10:41:14.314Z,100676.22
2023-11-18T10:43:43.371Z,100685.91
2023-11-18T10:46:15.023Z,100686.03
2023-11-18T10:48:44.732Z,100676.50
2023-11-18T10:51:14.945Z,100662.72
2023-11-18T10:53:54.331Z,100653.25
2023-11-18T10:56:28.655Z,100659.34
2023-11-18T10:58:59.309Z,100651.66
2023-11-18T11:01:34.977Z,100656.09
2023-11-18T11:04:05.919Z,100666.63
2023-11-18T11:06:35.976Z,100657.97
2023-11-18T11:09:11.083Z,100651.13
2023-11-18T11:11:44.801Z,100634.69
2023-11-18T11:14:17.120Z,100633.84
2023-11-18T11:16:51.517Z,100630.41
2023-11-18T11:19:27.227Z,100644.41
2023-11-18T11:22:07.229Z,100645.28
2023-11-18T11:24:54.002Z,100642.78
2023-11-18T11:27:36.907Z,100637.69
2023-11-18T11:30:15.010Z,100640.28
2023-11-18T11:32:53.022Z,100648.19
2023-11-18T11:35:26.077Z,100643.03
2023-11-18T11:37:58.696Z,100646.59
2023-11-18T11:40:30.807Z,100639.69
2023-11-18T11:43:02.308Z,100638.88
2023-11-18T11:45:31.732Z,100629.31
2023-11-18T11:48:20.184Z,100620.69
2023-11-18T11:51:05.141Z,100606.81
2023-11-18T11:53:37.197Z,100613.78
2023-11-18T11:56:15.219Z,100616.41
2023-11-18T11:58:45.775Z,100613.00
2023-11-18T12:01:24.667Z,100617.38
2023-11-18T12:03:59.567Z,100623.47
2023-11-18T12:06:29.674Z,100624.38
2023-11-18T12:08:59.021Z,100621.81
2023-11-18T12:11:29.292Z,100625.31
2023-11-18T12:14:11.104Z,100612.28
2023-11-18T12:17:09.292Z,100605.44
2023-11-18T12:19:49.739Z,100592.50
2023-11-18T12:22:27.840Z,100570.66
2023-11-18T12:25:36.634Z,100559.47
2023-11-18T12:28:12.746Z,100546.44
2023-11-18T12:30:51.012Z,100542.94
2023-11-18T12:33:20.890Z,100526.41
2023-11-18T12:36:28.704Z,100518.56
2023-11-18T12:39:44.859Z,100518.56
2023-11-18T12:42:24.579Z,100522.00
2023-11-18T12:45:22.023Z,100501.13
2023-11-18T12:47:54.793Z,100509.84
2023-11-18T12:50:26.242Z,100494.19
2023-11-18T12:52:55.435Z,100485.47
2023-11-18T12:55:24.167Z,100481.13
2023-11-18T12:57:55.287Z,100472.50
2023-11-18T13:00:29.042Z,100465.66
2023-11-18T13:02:59.292Z,100438.66
2023-11-18T13:05:31.079Z,100433.44
2023-11-18T13:08:02.961Z,100419.56
2023-11-18T13:10:32.026Z,100419.56
2023-11-18T13:13:02.616Z,100419.63
2023-11-18T13:15:31.895Z,100438.78
2023-11-18T13:18:02.313Z,100427.59
2023-11-18T13:20:32.985Z,100408.50
2023-11-18T13:23:02.226Z,100390.22
2023-11-18T13:25:31.852Z,100362.41
2023-11-18T13:28:00.652Z,100343.34
2023-11-18T13:30:30.664Z,100352.13
2023-11-18T13:32:59.733Z,100338.25
2023-11-18T13:35:29.076Z,100336.59
2023-11-18T13:37:59.613Z,100327.91
2023-11-18T13:40:31.029Z,100333.13
2023-11-18T13:43:09.753Z,100331.47
2023-11-18T13:45:40.725Z,100316.72
2023-11-18T13:48:10.100Z,100305.41
2023-11-18T13:50:39.437Z,100293.22
2023-11-18T13:53:09.277Z,100296.72
2023-11-18T13:55:39.818Z,100289.75
2023-11-18T13:58:11.655Z,100276.69
2023-11-18T14:00:43.153Z,100271.41
2023-11-18T14:03:13.063Z,100251.44
2023-11-18T14:05:46.030Z,100260.09
2023-11-18T14:08:21.033Z,100260.09
2023-11-18T14:11:02.069Z,100239.22
2023-11-18T14:13:32.647Z,100232.28
2023-11-18T14:16:03.067Z,100227.06
2023-11-18T14:18:31.684Z,100223.56
2023-11-18T14:21:01.956Z,100210.53
2023-11-18T14:23:30.779Z,100200.97
2023-11-18T14:25:59.389Z,100177.50
2023-11-18T14:28:28.766Z,100178.41
2023-11-18T14:30:57.410Z,100183.63
2023-11-18T14:33:27.339Z,100163.56
2023-11-18T14:35:57.264Z,100167.03
2023-11-18T14:38:25.890Z,100176.59
2023-11-18T14:40:54.806Z,100198.31
2023-11-18T14:43:23.337Z,100199.13
2023-11-18T14:45:52.059Z,100199.13
2023-11-18T14:48:20.667Z,100192.16
2023-11-18T14:50:50.525Z,100172.16
2023-11-18T14:53:20.451Z,100170.41
2023-11-18T14:55:48.991Z,100173.81
2023-11-18T14:58:17.627Z,100159.97
2023-11-18T15:00:48.910Z,100166.91
2023-11-18T15:03:17.613Z,100172.91
2023-11-18T15:05:46.300Z,100145.91
2023-11-18T15:08:17.225Z,100110.25
2023-11-18T15:10:46.304Z,100109.38
2023-11-18T15:13:16.719Z,100106.69
2023-11-18T15:15:49.341Z,100106.69
2023-11-18T15:18:19.197Z,100108.34
2023-11-18T15:20:48.909Z,100117.91
2023-11-18T15:23:19.617Z,100089.16
2023-11-18T15:25:48.992Z,100087.38
2023-11-18T15:28:18.420Z,100092.59
2023-11-18T15:30:47.345Z,100078.59
2023-11-18T15:33:16.259Z,100062.09
2023-11-18T15:35:45.309Z,100065.56
2023-11-18T15:38:18.836Z,100070.84
2023-11-18T15:40:52.217Z,100057.75
2023-11-18T15:43:21.096Z,100045.56
2023-11-18T15:45:49.739Z,100038.50
2023-11-18T15:48:18.499Z,100035.03
2023-11-18T15:50:47.492Z,100027.16
2023-11-18T15:53:16.660Z,100014.94
2023-11-18T15:55:48.828Z,100007.13
2023-11-18T15:58:20.001Z,100006.25
2023-11-18T16:00:48.974Z,99986.25
2023-11-18T16:03:17.939Z,99994.16
2023-11-18T16:05:46.622Z,99986.25
2023-11-18T16:08:15.221Z,99996.69
2023-11-18T16:10:44.200Z,99990.59
2023-11-18T16:13:16.060Z,99997.53
2023-11-18T16:15:45.989Z,99989.72
2023-11-18T16:18:17.359Z,99973.13
2023-11-18T16:20:46.089Z,99982.72
2023-11-18T16:23:14.827Z,99986.16
2023-11-18T16:25:43.538Z,99976.69
2023-11-18T16:28:13.964Z,99968.84
2023-11-18T16:30:42.603Z,99972.34
2023-11-18T16:33:12.751Z,99961.03
2023-11-18T16:35:41.448Z,99950.59
2023-11-18T16:38:10.072Z,99947.16
2023-11-18T16:40:40.207Z,99940.19
2023-11-18T16:43:08.819Z,99935.91
2023-11-18T16:45:38.323Z,99929.78
2023-11-18T16:48:07.535Z,99936.78
2023-11-18T16:50:38.076Z,99939.41
2023-11-18T16:53:07.698Z,99934.19
2023-11-18T16:55:36.480Z,99936.03
2023-11-18T16:58:05.122Z,99936.03
2023-11-18T17:00:36.686Z,99927.34
2023-11-18T17:03:05.735Z,99928.22
2023-11-18T17:05:34.546Z,99923.00
2023-11-18T17:08:06.555Z,99929.16
2023-11-18T17:10:35.694Z,99918.72
2023-11-18T17:13:05.655Z,99909.97
2023-11-18T17:15:34.235Z,99914.38
2023-11-18T17:18:04.276Z,99902.22
2023-11-18T17:20:34.445Z,99907.44
2023-11-18T17:23:04.751Z,99925.69
2023-11-18T17:25:33.381Z,99922.22
2023-11-18T17:28:06.046Z,99918.81
2023-11-18T17:30:38.228Z,99904.91
2023-11-18T17:33:09.449Z,99909.25
2023-11-18T17:35:38.115Z,99900.56
2023-11-18T17:38:08.179Z,99908.41
2023-11-18T17:40:36.836Z,99892.81
2023-11-18T17:43:06.312Z,99897.16
2023-11-18T17:45:34.951Z,99883.25
2023-11-18T17:48:07.277Z,99884.16
2023-11-18T17:50:36.166Z,99873.75
2023-11-18T17:53:04.792Z,99885.94
2023-11-18T17:55:36.100Z,99872.03
2023-11-18T17:58:05.126Z,99875.50
2023-11-18T18:00:33.777Z,99876.34
2023-11-18T18:03:02.478Z,99891.16
2023-11-18T18:05:31.343Z,99865.94
2023-11-18T18:07:59.960Z,99882.47
2023-11-18T18:10:29.694Z,99889.47
2023-11-18T18:12:59.678Z,99882.53
2023-11-18T18:15:28.522Z,99890.41
2023-11-18T18:17:57.529Z,99892.19
2023-11-18T18:20:26.277Z,99883.47
2023-11-18T18:22:54.936Z,99894.78
2023-11-18T18:25:23.654Z,99888.78
2023-11-18T18:27:52.360Z,99892.25
2023-11-18T18:30:22.305Z,99897.47
2023-11-18T18:32:51.791Z,99894.94
2023-11-18T18:35:20.850Z,99888.00
2023-11-18T18:37:49.916Z,99885.44
2023-11-18T18:40:20.056Z,99876.75
2023-11-18T18:42:48.793Z,99871.59
2023-11-18T18:45:19.411Z,99859.44
2023-11-18T18:47:50.681Z,99855.97
2023-11-18T18:50:20.299Z,99860.41
2023-11-18T18:52:48.919Z,99870.84
2023-11-18T18:55:17.630Z,99872.63
2023-11-18T18:57:46.155Z,99872.66
2023-11-18T19:00:15.468Z,99870.97
2023-11-18T19:02:44.549Z,99867.50
2023-11-18T19:05:15.862Z,99866.63
2023-11-18T19:07:44.604Z,99876.25
2023-11-18T19:10:13.149Z,99878.00
2023-11-18T19:12:43.234Z,99878.06
2023-11-18T19:15:17.344Z,99869.41
2023-11-18T19:17:46.846Z,99879.00
2023-11-18T19:20:17.804Z,99890.31
2023-11-18T19:22:46.482Z,99866.00
2023-11-18T19:25:16.931Z,99859.94
2023-11-18T19:27:47.075Z,99862.59
2023-11-18T19:30:16.217Z,99862.66
2023-11-18T19:32:45.264Z,99860.06
2023-11-18T19:35:15.934Z,99866.22
2023-11-18T19:37:49.621Z,99851.47
2023-11-18T19:40:18.454Z,99854.09
2023-11-18T19:42:47.103Z,99836.72
2023-11-18T19:45:15.832Z,99840.25
2023-11-18T19:47:44.639Z,99829.88
2023-11-18T19:50:14.401Z,99829.06
2023-11-18T19:52:43.133Z,99821.25
2023-11-18T19:55:15.665Z,99823.00
2023-11-18T19:57:44.125Z,99810.88
2023-11-18T20:00:18.343Z,99816.97
2023-11-18T20:02:47.249Z,99818.78
2023-11-18T20:05:15.800Z,99820.59
2023-11-18T20:07:44.336Z,99811.03
2023-11-18T20:10:14.473Z,99813.66
2023-11-18T20:12:43.072Z,99804.16
2023-11-18T20:15:13.313Z,99798.91
2023-11-18T20:17:46.892Z,99786.81
2023-11-18T20:20:15.814Z,99788.59
2023-11-18T20:22:44.407Z,99788.63
2023-11-18T20:25:15.736Z,99782.56
2023-11-18T20:27:44.382Z,99779.16
2023-11-18T20:30:15.428Z,99788.75
2023-11-18T20:32:45.205Z,99766.19
2023-11-18T20:35:14.057Z,99768.81
2023-11-18T20:37:42.677Z,99774.09
2023-11-18T20:40:13.307Z,99774.09
2023-11-18T20:42:43.498Z,99769.78
2023-11-18T20:45:15.134Z,99761.09
2023-11-18T20:47:44.334Z,99756.81
2023-11-18T20:50:14.581Z,99748.97
2023-11-18T20:52:43.970Z,99743.81
2023-11-18T20:55:14.367Z,99743.81
2023-11-18T20:57:45.588Z,99755.19
2023-11-18T21:00:15.228Z,99748.28
2023-11-18T21:02:44.001Z,99737.84
2023-11-18T21:05:13.128Z,99736.16
2023-11-18T21:07:41.996Z,99739.66
2023-11-18T21:10:17.205Z,99738.84
2023-11-18T21:12:49.080Z,99739.72
2023-11-18T21:15:17.740Z,99743.22
2023-11-18T21:17:46.391Z,99744.19
2023-11-18T21:20:15.617Z,99743.34
2023-11-18T21:22:45.048Z,99746.88
2023-11-18T21:25:16.433Z,99739.09
2023-11-18T21:27:47.398Z,99736.50
2023-11-18T21:30:17.411Z,99726.09
2023-11-18T21:32:46.631Z,99724.38
2023-11-18T21:35:19.710Z,99720.91
2023-11-18T21:37:48.390Z,99727.03
2023-11-18T21:40:18.154Z,99717.50
2023-11-18T21:42:46.989Z,99711.41
2023-11-18T21:45:17.149Z,99718.41
2023-11-18T21:47:46.396Z,99716.72
2023-11-18T21:50:16.226Z,99724.59
2023-11-18T21:52:45.760Z,99728.97
2023-11-18T21:55:15.374Z,99715.09
2023-11-18T21:57:44.467Z,99699.41
2023-11-18T22:00:18.073Z,99702.94
2023-11-18T22:02:50.490Z,99696.91
2023-11-18T22:05:19.440Z,99694.28
2023-11-18T22:07:48.707Z,99697.78
2023-11-18T22:10:18.844Z,99696.97
2023-11-18T22:12:48.123Z,99693.53
2023-11-18T22:15:17.826Z,99696.16
2023-11-18T22:17:48.474Z,99697.09
2023-11-18T22:20:18.314Z,99695.41
2023-11-18T22:22:49.986Z,99698.88
2023-11-18T22:25:19.422Z,99695.47
2023-11-18T22:27:48.939Z,99698.06
2023-11-18T22:30:21.014Z,99701.63
2023-11-18T22:32:53.161Z,99697.25
2023-11-18T22:35:22.149Z,99692.09
2023-11-18T22:37:51.296Z,99702.59
2023-11-18T22:40:22.815Z,99688.66
2023-11-18T22:42:53.022Z,99690.41
2023-11-18T22:45:21.922Z,99676.50
2023-11-18T22:47:52.781Z,99663.44
2023-11-18T22:50:24.360Z,99665.25
2023-11-18T22:52:54.726Z,99653.97
2023-11-18T22:55:24.101Z,99654.84
2023-11-18T22:57:52.793Z,99653.16
2023-11-18T23:00:36.021Z,99652.28
2023-11-18T23:03:07.872Z,99647.09
2023-11-18T23:05:39.983Z,99661.97
2023-11-18T23:08:10.007Z,99653.25
2023-11-18T23:10:39.694Z,99651.53
2023-11-18T23:13:09.146Z,99650.75
2023-11-18T23:15:38.084Z,99647.31
2023-11-18T23:18:08.818Z,99648.19
2023-11-18T23:20:38.992Z,99649.94
2023-11-18T23:23:07.808Z,99644.75
2023-11-18T23:25:36.426Z,99643.94
2023-11-18T23:28:08.836Z,99634.41
2023-11-18T23:30:37.887Z,99648.34
2023-11-18T23:33:09.163Z,99640.56
2023-11-18T23:35:38.834Z,99637.06
2023-11-18T23:38:08.643Z,99628.41
2023-11-18T23:40:38.517Z,99631.16
2023-11-18T23:43:08.074Z,99621.56
2023-11-18T23:45:36.657Z,99613.75
2023-11-18T23:48:07.234Z,99598.94
2023-11-18T23:50:36.979Z,99602.47
2023-11-18T23:53:05.848Z,99590.31
2023-11-18T23:55:36.635Z,99580.78
2023-11-18T23:58:06.401Z,99570.34
